createdAt,value
2022-10-22T00:01:58.884Z,14.40
2022-10-22T00:07:00.628Z,14.50
2022-10-22T00:12:02.401Z,14.50
2022-10-22T00:17:05.855Z,14.60
2022-10-22T00:22:12.683Z,14.50
2022-10-22T00:27:15.482Z,14.50
2022-10-22T00:32:17.121Z,14.60
2022-10-22T00:37:18.780Z,14.70
2022-10-22T00:42:24.598Z,14.70
2022-10-22T00:47:30.546Z,14.70
2022-10-22T00:52:32.714Z,14.60
2022-10-22T00:57:36.095Z,14.70
2022-10-22T01:02:38.079Z,14.70
2022-10-22T01:07:45.052Z,14.50
2022-10-22T01:13:05.401Z,14.50
2022-10-22T01:18:24.308Z,14.60
2022-10-22T01:23:25.926Z,14.50
2022-10-22T01:29:02.344Z,14.60
2022-10-22T01:34:05.173Z,14.60
2022-10-22T01:39:08.391Z,14.60
2022-10-22T01:44:33.403Z,14.60
2022-10-22T01:49:53.627Z,14.60
2022-10-22T01:55:20.106Z,14.60
2022-10-22T02:00:22.056Z,14.60
2022-10-22T02:05:35.454Z,14.70
2022-10-22T02:10:39.525Z,14.70
2022-10-22T02:15:45.329Z,14.80
2022-10-22T02:20:47.571Z,14.80
2022-10-22T02:25:55.741Z,14.70
2022-10-22T02:31:04.434Z,14.80
2022-10-22T02:36:07.981Z,14.80
2022-10-22T02:41:11.619Z,14.80
2022-10-22T02:46:13.288Z,14.80
2022-10-22T02:51:15.336Z,14.80
2022-10-22T02:56:17.197Z,14.80
2022-10-22T03:01:18.947Z,14.80
2022-10-22T03:06:20.655Z,14.80
2022-10-22T03:11:22.320Z,14.80
2022-10-22T03:16:23.933Z,14.70
2022-10-22T03:21:37.083Z,14.60
2022-10-22T03:26:41.373Z,14.60
2022-10-22T03:31:43.260Z,14.60
2022-10-22T03:36:45.493Z,14.60
2022-10-22T03:41:49.136Z,14.50
2022-10-22T03:46:51.216Z,14.40
2022-10-22T03:51:52.873Z,14.40
2022-10-22T03:56:54.691Z,14.30
2022-10-22T04:01:56.350Z,14.30
2022-10-22T04:06:58.039Z,14.30
2022-10-22T04:12:00.073Z,14.20
2022-10-22T04:17:01.890Z,14.20
2022-10-22T04:22:03.544Z,14.10
2022-10-22T04:27:05.180Z,14.20
2022-10-22T04:32:06.873Z,14.20
2022-10-22T04:37:08.492Z,14.10
2022-10-22T04:42:10.879Z,14.10
2022-10-22T04:47:12.500Z,14.00
2022-10-22T04:52:14.110Z,14.00
2022-10-22T04:57:15.835Z,14.00
2022-10-22T05:02:17.424Z,14.00
2022-10-22T05:07:19.133Z,14.00
2022-10-22T05:12:20.786Z,13.90
2022-10-22T05:17:22.424Z,13.90
2022-10-22T05:22:29.616Z,13.90
2022-10-22T05:27:31.271Z,14.00
2022-10-22T05:32:35.096Z,13.90
2022-10-22T05:37:36.720Z,13.80
2022-10-22T05:42:38.641Z,13.90
2022-10-22T05:47:40.480Z,13.70
2022-10-22T05:52:42.345Z,13.80
2022-10-22T05:57:44.222Z,13.70
2022-10-22T06:02:50.037Z,13.70
2022-10-22T06:07:51.861Z,13.70
2022-10-22T06:12:53.485Z,13.70
2022-10-22T06:17:55.123Z,13.70
2022-10-22T06:22:56.712Z,13.60
2022-10-22T06:27:58.397Z,13.60
2022-10-22T06:33:00.009Z,13.70
2022-10-22T06:38:01.603Z,13.70
2022-10-22T06:43:03.353Z,13.70
2022-10-22T06:48:05.420Z,13.70
2022-10-22T06:53:07.190Z,13.70
2022-10-22T06:58:08.954Z,13.80
2022-10-22T07:03:13.281Z,13.80
2022-10-22T07:08:14.895Z,13.90
2022-10-22T07:13:16.628Z,13.90
2022-10-22T07:18:18.200Z,13.90
2022-10-22T07:23:19.873Z,13.90
2022-10-22T07:28:23.118Z,13.80
2022-10-22T07:33:25.158Z,14.00
2022-10-22T07:38:27.668Z,14.00
2022-10-22T07:43:29.332Z,14.10
2022-10-22T07:48:30.999Z,14.20
2022-10-22T07:53:33.111Z,14.40
2022-10-22T07:58:35.364Z,14.70
2022-10-22T08:03:37.008Z,14.80
2022-10-22T08:08:39.180Z,14.90
2022-10-22T08:13:45.108Z,15.00
2022-10-22T08:18:47.349Z,15.00
2022-10-22T08:23:49.023Z,15.10
2022-10-22T08:28:50.690Z,15.10
2022-10-22T08:33:52.324Z,15.10
2022-10-22T08:38:53.983Z,15.30
2022-10-22T08:44:19.596Z,15.40
2022-10-22T08:49:38.523Z,15.40
2022-10-22T08:54:55.596Z,15.60
2022-10-22T09:00:11.206Z,15.60
2022-10-22T09:05:43.889Z,15.70
2022-10-22T09:10:50.910Z,15.70
2022-10-22T09:16:10.972Z,15.90
2022-10-22T09:21:12.686Z,15.80
2022-10-22T09:26:16.265Z,15.80
2022-10-22T09:31:18.287Z,15.80
2022-10-22T09:36:23.090Z,15.70
2022-10-22T09:41:32.195Z,15.70
2022-10-22T09:46:45.453Z,15.80
2022-10-22T09:51:52.243Z,15.80
2022-10-22T09:56:57.952Z,15.90
2022-10-22T10:02:19.492Z,16.00
2022-10-22T10:07:26.079Z,16.00
2022-10-22T10:12:38.981Z,16.00
2022-10-22T10:18:07.928Z,16.10
2022-10-22T10:23:28.136Z,16.20
2022-10-22T10:29:06.521Z,16.30
2022-10-22T10:34:25.716Z,16.40
2022-10-22T10:39:47.664Z,16.40
2022-10-22T10:45:20.204Z,16.50
2022-10-22T10:50:49.217Z,16.50
2022-10-22T10:56:00.619Z,16.50
2022-10-22T11:01:29.923Z,16.50
2022-10-22T11:06:34.137Z,16.60
2022-10-22T11:11:50.075Z,16.70
2022-10-22T11:16:59.086Z,16.60
2022-10-22T11:22:29.488Z,16.60
2022-10-22T11:27:41.271Z,16.70
2022-10-22T11:32:46.631Z,16.80
2022-10-22T11:37:49.282Z,16.80
2022-10-22T11:42:56.865Z,16.90
2022-10-22T11:48:10.660Z,17.00
2022-10-22T11:53:15.240Z,17.10
2022-10-22T11:58:50.721Z,17.10
2022-10-22T12:03:58.492Z,17.20
2022-10-22T12:09:04.804Z,17.20
2022-10-22T12:14:27.561Z,17.10
2022-10-22T12:19:51.587Z,17.00
2022-10-22T12:24:57.213Z,17.00
2022-10-22T12:30:03.976Z,17.10
2022-10-22T12:35:16.649Z,17.20
2022-10-22T12:40:21.228Z,17.20
2022-10-22T12:45:25.607Z,17.20
2022-10-22T12:50:39.710Z,17.20
2022-10-22T12:55:43.426Z,17.40
2022-10-22T13:00:53.339Z,17.40
2022-10-22T13:06:11.367Z,17.40
2022-10-22T13:11:15.262Z,17.40
2022-10-22T13:16:24.596Z,17.60
2022-10-22T13:21:48.319Z,17.60
2022-10-22T13:26:53.075Z,17.60
2022-10-22T13:31:54.814Z,17.70
2022-10-22T13:36:56.521Z,17.70
2022-10-22T13:41:58.157Z,17.70
2022-10-22T13:46:59.898Z,17.70
2022-10-22T13:52:01.584Z,17.70
2022-10-22T13:57:08.846Z,17.80
2022-10-22T14:02:12.996Z,17.80
2022-10-22T14:07:16.512Z,17.90
2022-10-22T14:12:18.263Z,17.90
2022-10-22T14:17:20.363Z,18.10
2022-10-22T14:22:25.456Z,18.20
2022-10-22T14:27:29.121Z,18.20
2022-10-22T14:32:30.824Z,18.40
2022-10-22T14:37:32.543Z,18.30
2022-10-22T14:42:40.592Z,18.30
2022-10-22T14:47:42.572Z,18.30
2022-10-22T14:52:44.939Z,18.30
2022-10-22T14:57:46.932Z,18.30
2022-10-22T15:02:48.726Z,18.20
2022-10-22T15:07:50.608Z,18.20
2022-10-22T15:12:52.267Z,18.20
2022-10-22T15:17:53.920Z,18.20
2022-10-22T15:22:56.532Z,18.10
2022-10-22T15:28:04.667Z,18.10
2022-10-22T15:33:10.975Z,18.20
2022-10-22T15:38:12.573Z,18.10
2022-10-22T15:43:14.461Z,18.00
2022-10-22T15:48:16.069Z,17.90
2022-10-22T15:53:17.708Z,17.90
2022-10-22T15:58:19.389Z,17.80
2022-10-22T16:03:21.161Z,17.70
2022-10-22T16:08:23.034Z,17.60
2022-10-22T16:13:26.012Z,17.60
2022-10-22T16:18:27.652Z,17.50
2022-10-22T16:23:29.335Z,17.40
2022-10-22T16:28:31.006Z,17.30
2022-10-22T16:33:41.285Z,17.30
2022-10-22T16:38:47.335Z,17.20
2022-10-22T16:43:54.894Z,17.10
2022-10-22T16:48:57.036Z,17.00
2022-10-22T16:53:58.667Z,16.90
2022-10-22T16:59:00.396Z,16.90
2022-10-22T17:04:02.296Z,16.80
2022-10-22T17:09:04.980Z,16.80
2022-10-22T17:14:07.122Z,16.80
2022-10-22T17:19:15.628Z,16.70
2022-10-22T17:24:18.084Z,16.70
2022-10-22T17:29:21.839Z,16.60
2022-10-22T17:34:23.521Z,16.50
2022-10-22T17:39:25.976Z,16.40
2022-10-22T17:44:27.796Z,16.40
2022-10-22T17:49:29.612Z,16.20
2022-10-22T17:54:31.473Z,16.10
2022-10-22T17:59:33.464Z,15.90
2022-10-22T18:04:35.260Z,15.90
2022-10-22T18:09:37.128Z,15.90
2022-10-22T18:14:38.778Z,15.70
2022-10-22T18:19:40.486Z,15.60
2022-10-22T18:24:42.197Z,15.60
2022-10-22T18:29:43.867Z,15.50
2022-10-22T18:34:45.489Z,15.50
2022-10-22T18:39:47.139Z,15.50
2022-10-22T18:44:51.001Z,15.50
2022-10-22T18:49:52.646Z,15.40
2022-10-22T18:54:54.447Z,15.40
2022-10-22T18:59:58.666Z,15.30
2022-10-22T19:05:01.281Z,15.30
2022-10-22T19:10:03.503Z,15.30
2022-10-22T19:15:06.145Z,15.20
2022-10-22T19:20:08.456Z,15.10
2022-10-22T19:25:12.012Z,15.10
2022-10-22T19:30:14.374Z,15.00
2022-10-22T19:35:16.225Z,15.00
2022-10-22T19:40:18.005Z,15.00
2022-10-22T19:45:19.769Z,15.00
2022-10-22T19:50:22.887Z,14.90
2022-10-22T19:55:24.589Z,14.90
2022-10-22T20:00:26.364Z,14.80
2022-10-22T20:05:28.079Z,14.70
2022-10-22T20:10:30.157Z,14.70
2022-10-22T20:15:33.061Z,14.60
2022-10-22T20:20:39.517Z,14.60
2022-10-22T20:25:43.008Z,14.60
2022-10-22T20:30:45.757Z,14.60
2022-10-22T20:35:58.216Z,14.70
2022-10-22T20:41:05.683Z,14.60
2022-10-22T20:46:07.400Z,14.60
2022-10-22T20:51:09.157Z,14.50
2022-10-22T20:56:11.505Z,14.50
2022-10-22T21:01:20.403Z,14.50
2022-10-22T21:06:23.091Z,14.40
2022-10-22T21:11:24.953Z,14.40
2022-10-22T21:16:26.717Z,14.40
2022-10-22T21:21:28.404Z,14.40
2022-10-22T21:26:30.091Z,14.30
2022-10-22T21:31:31.770Z,14.30
2022-10-22T21:36:33.561Z,14.30
2022-10-22T21:41:37.561Z,14.20
2022-10-22T21:46:39.213Z,14.10
2022-10-22T21:51:42.806Z,14.10
2022-10-22T21:56:44.477Z,14.00
2022-10-22T22:01:46.261Z,14.00
2022-10-22T22:06:48.030Z,14.00
2022-10-22T22:11:49.681Z,14.00
2022-10-22T22:16:51.411Z,13.90
2022-10-22T22:21:53.046Z,13.90
2022-10-22T22:26:54.772Z,13.90
2022-10-22T22:31:56.611Z,13.90
2022-10-22T22:36:58.257Z,13.80
2022-10-22T22:42:00.003Z,13.70
2022-10-22T22:47:01.673Z,13.60
2022-10-22T22:52:04.228Z,13.70
2022-10-22T22:57:05.960Z,13.60
2022-10-22T23:02:07.771Z,13.50
2022-10-22T23:07:09.460Z,13.50
2022-10-22T23:12:11.305Z,13.50
2022-10-22T23:17:12.981Z,13.40
2022-10-22T23:22:14.705Z,13.40
2022-10-22T23:27:16.421Z,13.40
2022-10-22T23:32:18.121Z,13.30
2022-10-22T23:37:19.760Z,13.40
2022-10-22T23:42:21.397Z,13.30
2022-10-22T23:47:23.001Z,13.20
2022-10-22T23:52:24.609Z,13.20
2022-10-22T23:57:26.284Z,13.20
